Time;durP1;ratioP1;P1;durP2;ratioP2;P2;SDS_P1;SDS_P2;PMS_P1;PMS_P2;Temp;Humidity;BMP_temperature;BMP_pressure;BME280_temperature;BME280_humidity;BME280_pressure;Samples;Min_cycle;Max_cycle;Signal;HPM_P1;HPM_P2
2022/11/11 00:01:27;;;;;;;26.67;13.38;;;;;;;9.63;63.70;101287.28;7791245;32;37958;-87
2022/11/11 00:05:44;;;;;;;27.55;14.68;;;;;;;9.66;63.47;101286.81;7791116;32;37401;-87
2022/11/11 00:10:00;;;;;;;35.30;16.25;;;;;;;9.51;64.09;101289.94;7791212;32;40158;-86
2022/11/11 00:14:16;;;;;;;38.25;18.37;;;;;;;9.24;64.61;101299.47;7791177;32;39925;-86
2022/11/11 00:27:53;;;;;;;34.28;18.12;;;;;;;9.49;63.93;101302.13;7780393;32;39314;-85
2022/11/11 00:32:22;;;;;;;36.20;18.17;;;;;;;9.10;65.41;101320.53;7790599;32;39746;-85
2022/11/11 00:36:38;;;;;;;39.13;18.17;;;;;;;9.53;63.88;101316.94;7790338;32;38888;-86
2022/11/11 00:41:00;;;;;;;34.45;17.20;;;;;;;9.54;63.75;101315.88;7793793;32;36851;-87
2022/11/11 00:45:16;;;;;;;32.45;16.27;;;;;;;9.27;64.50;101318.88;7779929;32;40091;-87
2022/11/11 00:54:07;;;;;;;37.88;18.02;;;;;;;9.02;65.05;101314.34;7782161;32;37963;-87
2022/11/11 00:58:23;;;;;;;37.78;17.80;;;;;;;8.84;64.94;101300.69;7793642;32;37115;-87
2022/11/11 01:02:40;;;;;;;31.15;16.87;;;;;;;9.05;64.54;101306.78;7793782;32;39813;-87
2022/11/11 01:06:56;;;;;;;39.83;18.52;;;;;;;9.07;64.39;101302.78;7793708;32;39893;-86
2022/11/11 01:11:19;;;;;;;44.70;18.23;;;;;;;9.08;63.84;101307.16;7793448;32;37933;-86
2022/11/11 01:15:35;;;;;;;35.63;16.67;;;;;;;9.25;63.80;101304.69;7793591;32;37982;-86
2022/11/11 01:19:51;;;;;;;38.58;17.20;;;;;;;8.99;64.30;101305.78;7793617;32;40152;-87
2022/11/11 01:24:07;;;;;;;32.80;17.90;;;;;;;8.82;65.06;101300.09;7793575;32;39876;-87
2022/11/11 01:28:23;;;;;;;34.88;17.10;;;;;;;8.79;66.17;101300.53;7793218;32;38734;-86
2022/11/11 01:32:40;;;;;;;34.85;17.90;;;;;;;8.97;64.93;101294.31;7793095;32;37163;-86
2022/11/11 01:36:57;;;;;;;35.50;17.83;;;;;;;8.83;65.49;101310.75;7793227;32;39410;-87
2022/11/11 01:41:33;;;;;;;38.22;18.62;;;;;;;8.60;66.01;101311.34;7793315;32;41190;-87
2022/11/11 01:45:59;;;;;;;37.28;18.42;;;;;;;8.72;65.55;101307.91;7793053;32;38136;-87
2022/11/11 01:50:15;;;;;;;38.88;17.40;;;;;;;8.81;65.34;101301.97;7792690;32;36986;-87
2022/11/11 01:54:47;;;;;;;37.20;18.35;;;;;;;8.52;66.36;101311.63;7778860;32;40132;-86
2022/11/11 01:59:08;;;;;;;40.67;19.45;;;;;;;8.62;65.58;101319.28;7793607;32;39983;-86
2022/11/11 02:03:26;;;;;;;43.97;19.27;;;;;;;8.23;67.22;101326.66;7792987;32;37978;-87
2022/11/11 02:07:44;;;;;;;39.58;19.90;;;;;;;8.46;66.72;101332.34;7793086;32;37029;-86
2022/11/11 02:16:39;;;;;;;39.35;18.48;;;;;;;8.18;68.55;101330.00;7781578;32;40486;-86
2022/11/11 02:20:55;;;;;;;80.30;21.25;;;;;;;8.62;67.13;101322.84;7792776;32;37901;-86
2022/11/11 02:25:16;;;;;;;380.30;29.80;;;;;;;8.29;69.10;101336.62;7792518;32;38042;-86
2022/11/11 02:29:32;;;;;;;93.53;19.48;;;;;;;8.16;70.02;101329.41;7779217;32;39409;-86
2022/11/11 02:33:48;;;;;;;88.20;19.30;;;;;;;8.39;69.55;101330.72;7778670;32;40787;-87
2022/11/11 02:38:12;;;;;;;187.93;21.83;;;;;;;8.50;69.28;101327.31;7792493;32;38007;-86
2022/11/11 02:42:29;;;;;;;64.72;20.10;;;;;;;8.20;70.24;101340.66;7792639;32;37638;-86
2022/11/11 02:46:46;;;;;;;52.65;19.08;;;;;;;8.21;70.45;101347.75;7792379;32;39407;-86
2022/11/11 02:51:02;;;;;;;69.82;19.55;;;;;;;8.16;70.63;101347.56;7792020;32;40940;-87
2022/11/11 02:55:19;;;;;;;94.82;20.08;;;;;;;8.63;68.94;101354.41;7792297;32;38790;-87
2022/11/11 02:59:36;;;;;;;140.32;20.60;;;;;;;8.33;69.65;101350.59;7792317;32;38693;-87
2022/11/11 03:03:53;;;;;;;103.78;18.52;;;;;;;8.61;68.56;101351.06;7791511;32;38626;-87
2022/11/11 03:08:09;;;;;;;68.78;17.25;;;;;;;8.47;69.19;101365.81;7792203;32;41248;-86
2022/11/11 03:12:25;;;;;;;223.70;23.83;;;;;;;8.66;68.93;101364.03;7792075;32;38774;-86
2022/11/11 03:21:17;;;;;;;51.67;17.67;;;;;;;8.76;68.81;101369.78;7791622;32;40189;-86
2022/11/11 03:25:53;;;;;;;188.43;21.55;;;;;;;8.50;69.71;101372.69;7764385;32;40243;-86
2022/11/11 03:30:13;;;;;;;258.27;26.85;;;;;;;8.56;69.91;101375.38;7764816;32;38095;-86
2022/11/11 03:34:29;;;;;;;389.80;28.77;;;;;;;8.64;69.26;101377.81;7764803;32;37259;-86
2022/11/11 03:38:45;;;;;;;111.57;18.70;;;;;;;8.63;69.61;101370.72;7764696;32;39843;-87
2022/11/11 03:43:02;;;;;;;83.47;19.62;;;;;;;8.71;69.55;101355.19;7764774;32;40526;-87
2022/11/11 03:47:20;;;;;;;67.53;18.12;;;;;;;8.81;69.28;101369.13;7787556;32;38808;-86
2022/11/11 03:51:36;;;;;;;389.75;27.80;;;;;;;8.91;69.28;101377.59;7791624;32;37404;-86
2022/11/11 03:55:52;;;;;;;65.72;18.17;;;;;;;8.91;69.41;101382.22;7791570;32;39493;-86
2022/11/11 04:00:10;;;;;;;289.33;22.90;;;;;;;8.94;69.34;101385.34;7791594;32;40729;-86
2022/11/11 04:21:42;;;;;;;338.87;25.30;;;;;;;9.13;68.22;101399.00;7763961;32;39691;-86
2022/11/11 04:22:54;;;;;;;326.98;23.75;;;;;;;9.25;67.88;101399.94;7763707;32;38677;-86
2022/11/11 04:27:13;;;;;;;116.15;18.02;;;;;;;9.28;67.55;101404.06;7763693;32;38061;-87
2022/11/11 04:31:29;;;;;;;257.15;23.67;;;;;;;9.07;68.52;101408.03;7763633;32;39442;-87
2022/11/11 04:35:49;;;;;;;186.50;20.42;;;;;;;8.84;69.53;101421.19;7763469;32;40513;-87
2022/11/11 04:49:15;;;;;;;429.23;30.48;;;;;;;9.13;68.79;101409.87;7778497;32;39421;-87
2022/11/11 04:53:31;;;;;;;425.00;30.48;;;;;;;9.05;68.95;101412.87;7776063;32;39953;-87
2022/11/11 04:57:47;;;;;;;449.30;32.92;;;;;;;8.64;69.93;101405.00;7790011;32;37983;-86
2022/11/11 05:11:15;;;;;;;109.00;19.12;;;;;;;8.74;69.91;101406.41;7789269;32;39895;-87
2022/11/11 05:29:16;;;;;;;142.93;19.02;;;;;;;8.86;69.65;101420.13;7793470;32;40704;-87
2022/11/11 05:33:32;;;;;;;104.00;16.70;;;;;;;8.93;69.47;101420.91;7793097;32;38131;-86
2022/11/11 05:38:19;;;;;;;38.80;15.27;;;;;;;8.62;70.05;101426.16;7793078;32;37537;-86
2022/11/11 05:42:24;;;;;;;179.07;19.40;;;;;;;8.37;70.15;101420.63;7793150;32;39307;-86
2022/11/11 05:46:40;;;;;;;127.97;18.50;;;;;;;8.55;70.05;101425.34;7793016;32;40737;-86
2022/11/11 05:51:00;;;;;;;128.90;16.52;;;;;;;8.47;69.95;101420.19;7792980;32;38723;-86
2022/11/11 05:55:16;;;;;;;115.20;17.08;;;;;;;8.61;69.69;101424.47;7779052;32;37206;-87
2022/11/11 05:59:32;;;;;;;117.85;16.95;;;;;;;8.27;71.09;101431.13;7793050;32;39372;-87
2022/11/11 06:03:48;;;;;;;178.90;19.45;;;;;;;8.60;69.84;101417.38;7793023;32;39956;-86
2022/11/11 06:08:05;;;;;;;163.20;18.62;;;;;;;8.20;71.33;101431.16;7792679;32;38848;-87
2022/11/11 06:12:21;;;;;;;233.10;20.65;;;;;;;8.32;71.34;101446.78;7792641;32;37337;-86
2022/11/11 06:16:37;;;;;;;156.57;18.83;;;;;;;8.57;70.42;101453.16;7778846;32;39386;-87
2022/11/11 06:20:57;;;;;;;271.73;23.77;;;;;;;8.03;72.25;101462.56;7778928;32;39636;-87
2022/11/11 06:29:48;;;;;;;86.03;16.50;;;;;;;8.87;69.80;101468.03;7792248;32;38189;-87
2022/11/11 06:34:04;;;;;;;152.48;18.37;;;;;;;8.95;69.61;101468.63;7792604;32;39260;-86
2022/11/11 06:38:21;;;;;;;200.20;20.60;;;;;;;8.75;70.11;101470.63;7791211;32;40706;-88
2022/11/11 06:42:37;;;;;;;183.20;17.95;;;;;;;8.82;69.88;101476.84;7788357;32;37850;-87
2022/11/11 06:46:53;;;;;;;60.05;13.88;;;;;;;8.93;69.51;101478.84;7792233;32;38031;-86
2022/11/11 06:51:10;;;;;;;155.15;18.02;;;;;;;8.89;69.71;101493.97;7791084;32;40021;-87
2022/11/11 06:55:26;;;;;;;90.32;14.90;;;;;;;8.98;69.44;101491.81;7777919;32;39877;-86
2022/11/11 06:59:42;;;;;;;80.20;15.07;;;;;;;8.78;70.02;101516.44;7792071;32;37916;-84
2022/11/11 07:03:58;;;;;;;71.32;16.80;;;;;;;9.08;69.38;101523.97;7788674;32;37413;-87
2022/11/11 07:08:17;;;;;;;75.62;15.38;;;;;;;8.87;70.20;101527.88;7788442;32;38449;-85
2022/11/11 07:12:33;;;;;;;271.58;21.87;;;;;;;9.06;69.52;101532.34;7774632;32;39959;-88
2022/11/11 07:16:49;;;;;;;253.43;22.15;;;;;;;9.12;69.50;101536.09;7774472;32;39084;-86
2022/11/11 07:21:05;;;;;;;275.45;22.67;;;;;;;9.05;69.26;101536.13;7791912;32;38078;-84
2022/11/11 07:25:21;;;;;;;224.52;20.25;;;;;;;8.83;71.80;101543.81;7792201;32;39103;-87
2022/11/11 07:29:37;;;;;;;128.75;17.75;;;;;;;9.21;69.64;101542.94;7791938;32;39955;-87
2022/11/11 07:33:53;;;;;;;92.85;17.10;;;;;;;9.21;69.62;101545.66;7791539;32;37960;-88
2022/11/11 07:38:10;;;;;;;233.35;22.13;;;;;;;9.35;69.21;101547.22;7791462;32;37213;-88
2022/11/11 07:42:26;;;;;;;132.95;18.23;;;;;;;9.02;70.81;101545.56;7785838;32;39436;-89
2022/11/11 07:46:46;;;;;;;253.43;22.58;;;;;;;8.96;70.85;101543.72;7798272;32;39947;-86
2022/11/11 07:51:02;;;;;;;285.88;25.23;;;;;;;9.31;70.29;101553.31;7796101;32;38756;-90
2022/11/11 07:55:19;;;;;;;297.52;23.98;;;;;;;9.04;71.09;101548.06;7796388;32;37430;-88
2022/11/11 07:59:35;;;;;;;184.57;22.00;;;;;;;9.28;70.75;101561.94;7773758;32;39451;-89
2022/11/11 08:03:51;;;;;;;61.42;17.58;;;;;;;9.40;71.02;101562.91;7790147;32;40035;-89
2022/11/11 08:08:08;;;;;;;112.18;18.00;;;;;;;9.31;70.91;101559.63;7806640;32;36734;-91
2022/11/11 08:16:59;;;;;;;39.60;17.12;;;;;;;9.28;71.62;101572.81;7819118;32;38952;-90
2022/11/11 08:21:15;;;;;;;50.92;18.00;;;;;;;9.82;71.04;101573.25;7818533;32;40499;-90
2022/11/11 08:25:31;;;;;;;33.25;16.67;;;;;;;10.04;69.84;101566.34;7803779;32;37531;-88
2022/11/11 08:29:47;;;;;;;59.20;17.55;;;;;;;10.17;68.62;101564.53;7809769;32;38140;-88
2022/11/11 08:34:04;;;;;;;62.53;19.17;;;;;;;9.72;69.45;101565.56;7776190;32;39435;-88
2022/11/11 08:38:22;;;;;;;115.85;19.55;;;;;;;9.69;70.19;101571.47;7789973;32;39901;-87
2022/11/11 08:42:38;;;;;;;44.33;18.05;;;;;;;9.84;69.59;101568.41;7751496;32;38179;-88
2022/11/11 08:46:54;;;;;;;76.65;19.92;;;;;;;10.01;68.97;101560.50;7790314;32;37166;-91
2022/11/11 08:51:10;;;;;;;74.22;18.12;;;;;;;10.02;69.27;101571.19;7789955;32;38907;-86
2022/11/11 08:55:26;;;;;;;44.05;17.92;;;;;;;9.83;70.18;101570.31;7790211;32;40705;-88
2022/11/11 08:59:42;;;;;;;43.53;18.23;;;;;;;10.05;69.54;101573.44;7789629;32;38653;-88
2022/11/11 09:04:01;;;;;;;46.05;17.77;;;;;;;9.97;69.68;101562.84;7793780;32;39271;-87
2022/11/11 09:08:37;;;;;;;40.95;18.83;;;;;;;10.24;68.44;101571.56;7781509;32;39552;-85
2022/11/11 09:12:57;;;;;;;63.83;17.87;;;;;;;9.93;69.53;101576.09;7791778;32;39818;-83
2022/11/11 09:17:13;;;;;;;48.80;19.02;;;;;;;9.87;69.96;101571.53;7763101;32;37620;-90
2022/11/11 09:21:29;;;;;;;34.17;17.30;;;;;;;9.72;70.28;101579.19;7750927;32;36878;-90
2022/11/11 09:25:45;;;;;;;30.17;17.05;;;;;;;10.13;69.97;101581.31;7774574;32;39294;-94
2022/11/11 09:30:02;;;;;;;26.95;17.60;;;;;;;10.27;68.80;101575.75;7764926;32;40180;-92
2022/11/11 09:34:18;;;;;;;32.35;18.92;;;;;;;10.13;69.62;101575.87;7766025;32;38970;-91
2022/11/11 09:38:34;;;;;;;45.72;19.02;;;;;;;10.29;69.38;101582.63;7766022;32;37372;-92
2022/11/11 09:43:04;;;;;;;35.15;18.95;;;;;;;9.93;69.70;101580.69;7766047;32;40023;-92
2022/11/11 09:47:47;;;;;;;32.38;19.17;;;;;;;9.95;70.50;101586.72;7777205;32;38445;-94
2022/11/11 09:52:15;;;;;;;44.65;19.08;;;;;;;10.07;70.35;101582.25;7791418;32;37635;-93
2022/11/11 09:56:33;;;;;;;34.22;20.00;;;;;;;10.49;68.96;101563.34;7779605;32;37563;-92
2022/11/11 10:01:00;;;;;;;35.55;19.55;;;;;;;10.55;68.80;101549.88;7779217;32;39517;-92
2022/11/11 10:05:33;;;;;;;34.13;20.35;;;;;;;10.94;67.32;101548.53;7793397;32;39994;-92
2022/11/11 10:09:59;;;;;;;36.65;21.20;;;;;;;11.00;67.23;101554.94;7792462;32;37585;-90
2022/11/11 10:14:16;;;;;;;38.17;21.20;;;;;;;10.61;69.34;101559.88;7792496;32;37206;-92
2022/11/11 10:18:44;;;;;;;33.92;19.80;;;;;;;11.52;67.49;101565.28;7793107;32;39287;-89
2022/11/11 10:23:39;;;;;;;35.40;19.87;;;;;;;11.46;67.87;101556.97;7794359;32;40404;-92
2022/11/11 10:27:58;;;;;;;35.45;19.65;;;;;;;11.52;67.20;101566.16;7777853;32;38907;-90
2022/11/11 10:32:32;;;;;;;37.42;20.35;;;;;;;12.12;65.73;101572.50;7776016;32;37598;-92
2022/11/11 10:36:55;;;;;;;32.80;19.05;;;;;;;12.51;64.98;101561.88;7776695;32;39513;-92
2022/11/11 10:41:20;;;;;;;38.92;20.20;;;;;;;12.27;64.39;101564.63;7777786;32;39763;-90
2022/11/11 10:46:07;;;;;;;35.20;20.10;;;;;;;12.57;63.39;101560.88;7792529;32;38577;-92
2022/11/11 10:50:30;;;;;;;36.22;20.88;;;;;;;12.82;62.64;101559.75;7787866;32;37108;-91
2022/11/11 10:55:04;;;;;;;39.55;20.80;;;;;;;12.42;61.81;101547.75;7768486;32;39376;-91
2022/11/11 10:59:36;;;;;;;36.03;19.17;;;;;;;12.37;62.81;101533.97;7800447;32;39849;-92
2022/11/11 11:04:02;;;;;;;33.63;19.77;;;;;;;12.81;62.41;101514.28;7790432;32;38121;-93
2022/11/11 11:08:25;;;;;;;32.67;17.12;;;;;;;13.40;62.12;101530.44;7768369;32;37898;-92
2022/11/11 11:13:06;;;;;;;28.73;17.23;;;;;;;13.56;60.69;101524.13;7775384;32;39376;-94
2022/11/11 11:17:47;;;;;;;27.33;16.60;;;;;;;14.61;58.03;101513.28;7772490;32;40356;-93
2022/11/11 11:22:03;;;;;;;30.05;17.08;;;;;;;14.71;56.69;101514.47;7812816;32;38648;-93
2022/11/11 11:26:20;;;;;;;33.47;17.80;;;;;;;15.29;55.54;101507.34;7812997;32;240716;-94
2022/11/11 11:30:36;;;;;;;32.15;17.80;;;;;;;15.47;54.22;101510.78;7812330;32;39610;-87
2022/11/11 11:34:54;;;;;;;31.75;18.62;;;;;;;15.40;53.34;101511.84;7785793;32;39854;-90
2022/11/11 11:39:10;;;;;;;33.55;19.12;;;;;;;15.71;53.01;101503.84;7799691;32;37704;-91
2022/11/11 11:43:37;;;;;;;29.90;17.92;;;;;;;15.21;54.85;101508.66;7771347;32;37214;-90
2022/11/11 11:48:15;;;;;;;31.25;18.33;;;;;;;15.25;53.14;101521.87;7762150;32;39376;-88
2022/11/11 11:52:58;;;;;;;29.80;17.45;;;;;;;15.14;54.08;101519.03;7726021;32;40737;-90
2022/11/11 11:57:27;;;;;;;32.63;17.80;;;;;;;14.58;56.40;101523.91;7710773;32;38507;-89
2022/11/11 12:02:22;;;;;;;31.12;18.98;;;;;;;15.46;53.30;101522.88;7706850;32;38027;-89
2022/11/11 12:07:14;;;;;;;33.88;17.62;;;;;;;15.42;53.20;101508.00;7708440;32;39295;-90
2022/11/11 12:11:57;;;;;;;29.25;17.55;;;;;;;15.38;53.24;101505.78;7709919;32;39937;-90
2022/11/11 12:16:16;;;;;;;27.83;16.95;;;;;;;16.11;51.80;101504.37;7741617;32;37619;-91
2022/11/11 12:20:38;;;;;;;26.67;15.98;;;;;;;16.75;50.38;101503.25;7744649;32;37951;-89
2022/11/11 12:25:26;;;;;;;30.52;16.12;;;;;;;16.47;49.11;101510.88;7737031;32;39357;-90
2022/11/11 12:29:53;;;;;;;26.37;15.45;;;;;;;16.65;48.72;101495.78;7735674;32;39950;-90
2022/11/11 12:34:20;;;;;;;24.83;14.55;;;;;;;16.96;49.24;101503.31;7737355;32;38058;-90
2022/11/11 12:38:58;;;;;;;25.12;14.70;;;;;;;16.49;49.86;101507.84;7739388;32;38205;-88
2022/11/11 12:43:27;;;;;;;24.63;14.32;;;;;;;16.24;50.47;101512.13;7739582;32;38999;-90
2022/11/11 12:47:59;;;;;;;24.30;14.18;;;;;;;14.87;53.15;101513.56;7779240;32;39607;-88
2022/11/11 12:52:38;;;;;;;25.40;15.13;;;;;;;15.23;51.91;101502.06;7778964;32;38496;-87
2022/11/11 12:57:38;;;;;;;28.60;15.40;;;;;;;14.57;54.77;101495.63;7779053;32;37187;-91
2022/11/11 13:02:21;;;;;;;27.58;16.62;;;;;;;14.85;53.86;101488.28;7784385;32;40099;-93
2022/11/11 13:06:46;;;;;;;28.50;17.08;;;;;;;13.94;57.20;101491.53;7771653;32;39817;-88
2022/11/11 13:11:32;;;;;;;29.12;17.35;;;;;;;14.07;57.41;101496.62;7765908;32;38760;-92
2022/11/11 13:15:48;;;;;;;28.60;16.85;;;;;;;13.95;57.83;101493.19;7767576;32;37401;-91
2022/11/11 13:20:34;;;;;;;30.27;18.00;;;;;;;14.12;57.37;101483.00;7767151;32;39859;-92
2022/11/11 13:24:51;;;;;;;28.73;15.93;;;;;;;13.81;58.61;101479.81;7766808;32;39816;-90
2022/11/11 13:29:27;;;;;;;34.83;16.00;;;;;;;13.71;58.96;101469.56;7764657;32;37686;-90
2022/11/11 13:33:46;;;;;;;28.48;16.00;;;;;;;14.03;57.88;101457.94;7753113;32;37258;-89
2022/11/11 13:38:03;;;;;;;30.83;17.00;;;;;;;13.86;58.47;101466.19;7753242;32;39390;-90
2022/11/11 13:42:24;;;;;;;37.35;20.37;;;;;;;14.17;57.63;101474.00;7765863;32;40583;-90
2022/11/11 13:46:46;;;;;;;33.28;18.48;;;;;;;13.99;58.12;101464.19;7765642;32;38733;-92
2022/11/11 13:51:30;;;;;;;27.42;15.38;;;;;;;13.98;57.98;101462.53;7765930;32;38025;-92
2022/11/11 13:55:47;;;;;;;29.15;15.80;;;;;;;13.70;59.13;101459.66;7744220;32;39362;-91
2022/11/11 14:00:23;;;;;;;25.17;14.10;;;;;;;14.23;57.62;101462.03;7765862;32;39705;-91
2022/11/11 14:05:16;;;;;;;26.05;14.68;;;;;;;13.85;58.08;101461.00;7770741;32;38494;-87
2022/11/11 14:09:51;;;;;;;27.00;15.75;;;;;;;13.49;60.00;101436.63;7698462;32;37176;-89
2022/11/11 14:14:35;;;;;;;26.42;16.55;;;;;;;13.69;59.88;101432.50;7779120;32;39348;-89
2022/11/11 14:18:52;;;;;;;30.75;15.93;;;;;;;13.87;58.66;101428.66;7791486;32;39939;-89
2022/11/11 14:23:28;;;;;;;24.45;15.52;;;;;;;14.06;58.03;101419.03;7791791;32;38151;-89
2022/11/11 14:27:45;;;;;;;29.65;15.80;;;;;;;14.17;57.69;101424.63;7792829;32;37474;-90
2022/11/11 14:32:10;;;;;;;26.08;16.37;;;;;;;13.53;59.60;101434.22;7790376;32;39396;-89
2022/11/11 14:36:52;;;;;;;30.05;15.50;;;;;;;13.73;58.59;101441.06;7778619;32;40854;-88
2022/11/11 14:41:39;;;;;;;25.42;15.02;;;;;;;12.67;61.75;101429.75;7791957;32;38064;-88
2022/11/11 14:45:59;;;;;;;28.48;14.45;;;;;;;12.57;62.39;101432.31;7791367;32;37104;-89
2022/11/11 14:50:30;;;;;;;26.48;14.85;;;;;;;13.36;60.12;101431.50;7778411;32;39826;-90
2022/11/11 14:55:05;;;;;;;25.62;14.32;;;;;;;13.57;59.31;101429.06;7790916;32;39921;-88
2022/11/11 14:59:23;;;;;;;25.00;15.18;;;;;;;13.61;58.86;101427.50;7775105;32;38907;-90
2022/11/11 15:03:48;;;;;;;22.83;14.23;;;;;;;13.67;58.38;101410.03;7777562;32;38452;-90
2022/11/11 15:08:05;;;;;;;25.90;14.95;;;;;;;13.34;59.11;101412.56;7790147;32;40166;-91
2022/11/11 15:12:59;;;;;;;27.85;14.87;;;;;;;13.30;59.03;101413.31;7790969;32;38582;-90
2022/11/11 15:17:53;;;;;;;29.70;17.65;;;;;;;13.41;58.73;101412.38;7773507;32;37946;-86
2022/11/11 15:22:44;;;;;;;32.30;18.92;;;;;;;13.20;59.49;101410.41;7708441;32;37299;-90
2022/11/11 15:27:22;;;;;;;27.17;18.70;;;;;;;12.89;59.81;101421.66;7766704;32;39034;-88
2022/11/11 15:31:58;;;;;;;37.22;20.80;;;;;;;12.75;60.11;101421.16;7783600;32;39714;-88
2022/11/11 15:36:44;;;;;;;30.85;15.45;;;;;;;12.87;59.60;101418.34;7761876;32;38864;-88
2022/11/11 15:41:02;;;;;;;25.10;14.07;;;;;;;12.88;59.89;101424.66;7777017;32;37984;-89
2022/11/11 15:45:31;;;;;;;28.15;16.37;;;;;;;12.63;60.97;101434.06;7789586;32;40065;-88
2022/11/11 15:49:49;;;;;;;27.17;16.87;;;;;;;11.84;63.28;101431.91;7790053;32;40816;-88
2022/11/11 15:54:21;;;;;;;27.05;16.75;;;;;;;12.59;61.15;101438.38;7790177;32;38408;-89
2022/11/11 15:58:39;;;;;;;28.85;15.95;;;;;;;12.45;61.46;101447.94;7776699;32;37484;-88
2022/11/11 16:02:57;;;;;;;26.45;16.15;;;;;;;12.12;62.56;101449.47;7790976;32;38258;-88
2022/11/11 16:07:22;;;;;;;32.90;18.42;;;;;;;12.01;62.49;101454.72;7792037;32;40538;-92
2022/11/11 16:11:39;;;;;;;27.80;17.08;;;;;;;12.16;62.34;101446.03;7779251;32;37889;-90
2022/11/11 16:16:10;;;;;;;30.70;18.37;;;;;;;11.92;63.39;101439.78;7768080;32;37954;-83
2022/11/11 16:20:37;;;;;;;26.62;16.42;;;;;;;12.04;62.41;101442.50;7776674;32;39157;-89
2022/11/11 16:24:54;;;;;;;32.08;15.85;;;;;;;11.94;62.68;101450.47;7790018;32;40522;-88
2022/11/11 16:29:14;;;;;;;28.77;14.77;;;;;;;12.14;62.21;101447.31;7790262;32;37922;-87
2022/11/11 16:33:32;;;;;;;31.42;15.27;;;;;;;11.94;62.31;101442.28;7776506;32;37944;-89
2022/11/11 16:37:53;;;;;;;28.48;15.77;;;;;;;11.92;62.51;101434.31;7789841;32;39205;-92
2022/11/11 16:42:21;;;;;;;27.65;15.48;;;;;;;11.87;62.93;101442.38;7790622;32;40742;-89
2022/11/11 16:46:39;;;;;;;28.75;16.83;;;;;;;11.94;62.90;101442.28;7776040;32;37709;-90
2022/11/11 16:50:59;;;;;;;30.98;18.15;;;;;;;11.93;63.29;101435.94;7775206;32;36780;-87
2022/11/11 16:55:47;;;;;;;29.27;17.05;;;;;;;11.74;64.60;101428.97;7788631;32;40143;-90
2022/11/11 17:00:05;;;;;;;26.67;16.25;;;;;;;11.54;65.36;101432.91;7783736;32;42245;-91
2022/11/11 17:04:24;;;;;;;33.33;17.73;;;;;;;11.28;67.00;101437.75;7788123;32;38075;-86
2022/11/11 17:08:41;;;;;;;26.05;16.62;;;;;;;11.44;65.94;101429.94;7788220;32;37928;-87
2022/11/11 17:13:02;;;;;;;28.58;17.23;;;;;;;11.30;66.67;101431.22;7788358;32;39974;-87
2022/11/11 17:17:19;;;;;;;38.63;17.98;;;;;;;11.61;65.42;101430.06;7788304;32;38531;-87
2022/11/11 17:21:35;;;;;;;28.65;16.95;;;;;;;11.75;64.74;101419.69;7775184;32;38469;-87
2022/11/11 17:26:01;;;;;;;31.98;18.17;;;;;;;11.68;64.21;101416.28;7792636;32;37909;-87
2022/11/11 17:30:17;;;;;;;28.40;17.20;;;;;;;11.17;65.97;101419.47;7778947;32;39168;-86
2022/11/11 17:34:33;;;;;;;33.22;17.98;;;;;;;11.50;64.93;101409.84;7807615;32;39577;-88
2022/11/11 17:38:50;;;;;;;33.90;18.48;;;;;;;11.46;65.08;101403.22;7819494;32;38033;-87
2022/11/11 17:43:06;;;;;;;30.33;17.55;;;;;;;11.72;64.12;101401.06;7799343;32;38000;-88
2022/11/11 17:47:22;;;;;;;33.15;19.33;;;;;;;11.61;64.23;101406.28;7777108;32;40029;-90
2022/11/11 17:51:38;;;;;;;33.88;19.00;;;;;;;11.64;64.03;101402.22;7765416;32;40797;-91
2022/11/11 17:56:00;;;;;;;34.03;19.65;;;;;;;11.63;64.00;101408.78;7779246;32;37927;-90
2022/11/11 18:00:17;;;;;;;35.90;19.25;;;;;;;11.60;64.39;101407.34;7777017;32;38534;-86
2022/11/11 18:04:35;;;;;;;31.05;18.48;;;;;;;11.58;64.52;101395.84;7777393;32;39358;-89
2022/11/11 18:08:52;;;;;;;33.78;19.45;;;;;;;11.52;64.40;101399.53;7775635;32;40813;-87
2022/11/11 18:13:08;;;;;;;34.60;20.15;;;;;;;11.42;64.55;101385.66;7777767;32;37934;-89
2022/11/11 18:17:24;;;;;;;35.65;20.67;;;;;;;11.57;64.26;101388.72;7791303;32;37218;-91
2022/11/11 18:21:41;;;;;;;30.27;18.45;;;;;;;11.57;64.35;101393.34;7777683;32;39556;-89
2022/11/11 18:25:57;;;;;;;31.23;18.52;;;;;;;11.49;64.34;101391.81;7785448;32;40066;-92
2022/11/11 18:30:13;;;;;;;31.60;18.17;;;;;;;11.33;64.51;101392.53;7776149;32;38072;-88
2022/11/11 18:34:29;;;;;;;34.90;18.75;;;;;;;11.39;64.26;101391.59;7791743;32;37231;-86
2022/11/11 18:38:46;;;;;;;33.25;18.45;;;;;;;11.05;65.58;101383.13;7791653;32;39472;-92
2022/11/11 18:43:02;;;;;;;33.78;19.37;;;;;;;10.96;66.09;101390.84;7793229;32;40027;-92
2022/11/11 18:47:18;;;;;;;30.30;18.42;;;;;;;11.26;65.19;101387.19;7797262;32;37945;-93
2022/11/11 18:51:35;;;;;;;34.50;18.58;;;;;;;11.22;65.12;101392.28;7797921;32;38340;-94
2022/11/11 18:55:51;;;;;;;30.92;18.15;;;;;;;11.25;65.09;101378.16;7769835;32;40296;-93
2022/11/11 19:00:08;;;;;;;35.45;21.10;;;;;;;11.11;65.98;101387.66;7792471;32;41330;-93
2022/11/11 19:04:24;;;;;;;37.30;21.87;;;;;;;10.87;66.31;101390.34;7780064;32;38834;-95
2022/11/11 19:08:40;;;;;;;41.08;21.20;;;;;;;10.86;66.51;101396.03;7789847;32;37261;-90
2022/11/11 19:12:57;;;;;;;33.55;20.88;;;;;;;10.74;66.82;101400.66;7794391;32;38981;-93
2022/11/11 19:17:13;;;;;;;36.70;21.25;;;;;;;10.21;68.48;101397.59;7791539;32;39744;-92
2022/11/11 19:21:34;;;;;;;35.13;20.52;;;;;;;10.59;67.45;101399.19;7778301;32;38541;-94
2022/11/11 19:25:56;;;;;;;32.90;20.12;;;;;;;10.62;67.38;101392.44;7767940;32;38018;-94
2022/11/11 19:30:12;;;;;;;34.72;19.62;;;;;;;10.53;67.28;101398.22;7783766;32;39679;-94
2022/11/11 19:34:28;;;;;;;32.58;19.25;;;;;;;10.78;66.10;101404.56;7792628;32;39669;-93
2022/11/11 19:38:46;;;;;;;33.53;19.33;;;;;;;10.56;66.29;101407.00;7792736;32;37872;-93
2022/11/11 19:43:02;;;;;;;30.30;18.52;;;;;;;10.82;65.34;101403.88;7794024;32;37321;-93
2022/11/11 19:47:18;;;;;;;32.78;18.33;;;;;;;10.37;66.34;101401.59;7777691;32;40024;-91
2022/11/11 19:51:35;;;;;;;29.33;18.17;;;;;;;10.40;66.15;101405.75;7790939;32;40876;-92
2022/11/11 19:56:04;;;;;;;32.25;19.58;;;;;;;10.56;65.75;101405.09;7791737;32;37739;-92
2022/11/11 20:00:20;;;;;;;30.58;19.00;;;;;;;10.47;65.94;101396.44;7776941;32;37915;-91
2022/11/11 20:04:36;;;;;;;32.53;18.67;;;;;;;10.55;65.72;101386.25;7780169;32;39322;-93
2022/11/11 20:08:54;;;;;;;29.27;17.80;;;;;;;10.20;66.38;101400.56;7780489;32;40934;-94
2022/11/11 20:13:10;;;;;;;31.30;19.12;;;;;;;10.02;66.93;101410.41;7779093;32;38886;-93
2022/11/11 20:17:27;;;;;;;35.92;19.27;;;;;;;10.43;66.05;101411.56;7776219;32;37350;-93
2022/11/11 20:21:43;;;;;;;33.88;19.20;;;;;;;10.22;66.85;101414.78;7790032;32;39291;-90
2022/11/11 20:26:08;;;;;;;27.08;17.65;;;;;;;10.01;67.52;101407.91;7776415;32;39778;-92
2022/11/11 20:30:24;;;;;;;27.77;16.92;;;;;;;10.00;67.36;101398.06;7765310;32;37886;-92
2022/11/11 20:34:40;;;;;;;33.10;19.10;;;;;;;10.60;64.96;101410.94;7796585;32;37463;-94
2022/11/11 20:38:56;;;;;;;32.97;17.62;;;;;;;10.30;66.78;101411.75;7792396;32;39078;-92
2022/11/11 20:43:12;;;;;;;39.00;18.98;;;;;;;10.55;66.45;101414.34;7791566;32;40125;-92
2022/11/11 20:47:29;;;;;;;33.67;17.83;;;;;;;10.16;68.00;101411.09;7792949;32;38460;-92
2022/11/11 20:51:49;;;;;;;27.75;16.60;;;;;;;10.42;67.05;101415.38;7796770;32;37993;-92
2022/11/11 20:56:11;;;;;;;27.58;16.67;;;;;;;10.57;66.84;101412.22;7790461;32;39797;-90
2022/11/11 21:00:27;;;;;;;31.05;17.40;;;;;;;10.46;66.95;101408.38;7788814;32;39972;-92
2022/11/11 21:04:43;;;;;;;28.48;15.85;;;;;;;10.63;66.48;101410.47;7793649;32;38039;-91
2022/11/11 21:09:01;;;;;;;31.67;17.83;;;;;;;10.73;65.47;101407.16;7793144;32;36862;-93
2022/11/11 21:13:17;;;;;;;29.70;16.00;;;;;;;10.57;66.10;101401.31;7779391;32;39559;-95